Sugar Grove, IL (60554)

1:57 PM CDT on August 30, 2016 (GMT -0500)
APRSWXNET | | Change Station

Elev 721 ft 41.76 °N, 88.36 °W | Updated 42 minutes ago

Scattered Clouds
Scattered Clouds
81 °F
Feels Like 85 °F
N
0
Wind Variable Wind from NW
Gusts 0.0 mph

Today
High -- | Low -- °F
--% Chance of Precip.
Yesterday
High -- | Low -- °F
Precip. -- in
Pressure 30.10 in
Visibility 10.0 miles
Clouds Scattered Clouds 2500 ft
Heat Index 85 °F
Dew Point 71 °F
Humidity 72%
Rainfall in
Snow Depth Not available.
6:18 AM 7:29 PM
Waning Crescent, 3% visible
METAR KARR 301852Z 34004KT 10SM SCT025 27/21 A3012 RMK AO2 SLP193 T02670206
Pressure 30.10 in
Visibility 10.0 miles
Clouds Scattered Clouds 2500 ft
Heat Index 85 °F
Dew Point 71 °F
Humidity 72%
Rainfall in
Snow Depth Not available.
6:18 AM 7:29 PM
Waning Crescent, 3% visible
METAR KARR 301852Z 34004KT 10SM SCT025 27/21 A3012 RMK AO2 SLP193 T02670206

10-Day Weather Forecast

Almanac

Astronomy

Aug. 30, 2016 Rise Set
Actual Time
Civil Twilight
Nautical Twilight
Astronomical Twilight
Moon
Length of Visible Light
Length of Day
Tomorrow will be .
, % of the Moon is Illuminated

Today's Extremes

State Highs State Lows

Community

WunderPhotos

Upload Photos

1,935,875 photos uploaded!

WunderBlog® & News

Nearby

Air Quality

  Air Quality AQ Index Pollutant
Not available.

Snow Depth

Station Depth Elevation

Earthquake Activity

City Distance Mag. Time & Date
Minimum magnitude displayed is 2.5.

Coastal Water Temperatures

Place Temperature

Stations

Nearby Weather Stations

Station Location Temp. Windchill Dew Point Humidity Wind Precip. Elev Updated Type
                   

Watches & Warnings

There are currently no watches in effect.